createdAt,value
2018-07-01T00:01:09.219Z,21.00
2018-07-01T00:03:40.212Z,21.10
2018-07-01T00:06:08.853Z,21.60
2018-07-01T00:08:39.697Z,21.70
2018-07-01T00:13:36.717Z,21.70
2018-07-01T00:16:05.470Z,22.00
2018-07-01T00:18:34.106Z,22.80
2018-07-01T00:21:02.774Z,22.50
2018-07-01T00:23:31.427Z,22.00
2018-07-01T00:26:02.255Z,22.30
2018-07-01T00:28:32.626Z,22.80
2018-07-01T00:31:01.307Z,22.90
2018-07-01T00:33:32.110Z,23.00
2018-07-01T00:36:01.560Z,22.90
2018-07-01T00:38:30.383Z,23.60
2018-07-01T00:40:59.032Z,23.40
2018-07-01T00:43:27.673Z,23.00
2018-07-01T00:45:57.780Z,23.30
2018-07-01T00:48:26.422Z,23.30
2018-07-01T00:50:55.066Z,22.60
2018-07-01T00:53:23.694Z,22.90
2018-07-01T00:55:52.446Z,22.10
2018-07-01T00:58:21.055Z,22.10
2018-07-01T01:00:49.705Z,22.10
2018-07-01T01:03:18.346Z,22.50
2018-07-01T01:05:46.978Z,22.50
2018-07-01T01:08:15.662Z,22.50
2018-07-01T01:10:44.253Z,21.90
2018-07-01T01:13:12.941Z,22.20
2018-07-01T01:15:41.617Z,22.50
2018-07-01T01:18:12.174Z,23.40
2018-07-01T01:20:40.871Z,23.40
2018-07-01T01:23:09.528Z,23.50
2018-07-01T01:25:38.202Z,22.80
2018-07-01T01:28:06.861Z,23.90
2018-07-01T01:30:35.504Z,23.90
2018-07-01T01:33:04.282Z,24.30
2018-07-01T01:35:32.999Z,23.80
2018-07-01T01:38:01.716Z,23.90
2018-07-01T01:40:35.772Z,23.40
2018-07-01T01:43:09.415Z,23.20
2018-07-01T01:46:47.982Z,23.00
2018-07-01T01:49:22.651Z,23.30
2018-07-01T01:52:01.537Z,23.80
2018-07-01T01:54:37.509Z,23.80
2018-07-01T01:57:18.079Z,23.90
2018-07-01T01:59:52.786Z,24.20
2018-07-01T02:02:27.760Z,24.80
2018-07-01T02:05:04.409Z,25.60
2018-07-01T02:07:38.318Z,26.40
2018-07-01T02:10:07.042Z,26.80
2018-07-01T02:12:35.771Z,26.60
2018-07-01T02:15:10.004Z,27.20
2018-07-01T02:17:44.399Z,28.10
2018-07-01T02:20:13.812Z,28.90
2018-07-01T02:22:46.458Z,29.70
2018-07-01T02:25:18.873Z,29.20
2018-07-01T02:27:47.743Z,30.00
2018-07-01T02:30:16.450Z,29.80
2018-07-01T02:32:45.505Z,30.40
2018-07-01T02:35:14.215Z,30.70
2018-07-01T02:37:42.939Z,30.60
2018-07-01T02:40:11.690Z,31.20
2018-07-01T02:42:40.359Z,31.80
2018-07-01T02:45:09.823Z,32.70
2018-07-01T02:47:38.437Z,33.10
2018-07-01T02:50:07.474Z,33.20
2018-07-01T02:52:38.824Z,33.20
2018-07-01T02:55:08.096Z,33.50
2018-07-01T02:57:36.732Z,33.90
2018-07-01T03:00:06.728Z,33.90
2018-07-01T03:02:35.400Z,34.80
2018-07-01T03:05:04.225Z,34.90
2018-07-01T03:07:33.939Z,35.50
2018-07-01T03:10:02.671Z,36.20
2018-07-01T03:12:31.305Z,36.40
2018-07-01T03:15:00.416Z,37.60
2018-07-01T03:17:29.893Z,38.30
2018-07-01T03:19:58.543Z,38.10
2018-07-01T03:22:27.211Z,38.80
2018-07-01T03:24:55.893Z,39.10
2018-07-01T03:27:24.543Z,39.50
2018-07-01T03:29:54.356Z,39.90
2018-07-01T03:32:23.998Z,39.90
2018-07-01T03:34:52.642Z,39.90
2018-07-01T03:37:21.325Z,40.00
2018-07-01T03:39:51.120Z,40.50
2018-07-01T03:42:19.772Z,40.80
2018-07-01T03:44:48.444Z,41.00
2018-07-01T03:47:17.085Z,41.30
2018-07-01T03:49:45.789Z,41.90
2018-07-01T03:52:14.413Z,41.60
2018-07-01T03:54:48.859Z,41.80
2018-07-01T03:57:18.613Z,41.70
2018-07-01T03:59:47.849Z,42.50
2018-07-01T04:02:16.516Z,42.50
2018-07-01T04:04:45.142Z,42.90
2018-07-01T04:07:13.886Z,42.30
2018-07-01T04:09:42.904Z,42.30
2018-07-01T04:12:11.598Z,42.20
2018-07-01T04:14:40.292Z,41.90
2018-07-01T04:17:08.910Z,42.30
2018-07-01T04:19:38.842Z,41.30
2018-07-01T04:22:09.769Z,42.30
2018-07-01T04:24:38.811Z,42.00
2018-07-01T04:27:07.497Z,40.30
2018-07-01T04:29:36.535Z,38.90
2018-07-01T04:32:05.606Z,39.50
2018-07-01T04:34:34.322Z,38.70
2018-07-01T04:37:03.463Z,37.90
2018-07-01T04:39:32.498Z,37.50
2018-07-01T04:42:01.554Z,36.30
2018-07-01T04:44:30.771Z,36.00
2018-07-01T04:46:59.515Z,36.60
2018-07-01T04:49:28.368Z,36.10
2018-07-01T04:51:57.055Z,34.30
2018-07-01T04:54:25.837Z,33.80
2018-07-01T04:56:54.590Z,33.70
2018-07-01T04:59:23.541Z,34.00
2018-07-01T05:01:52.397Z,33.80
2018-07-01T05:04:21.137Z,33.70
2018-07-01T05:06:50.043Z,33.80
2018-07-01T05:09:18.711Z,32.10
2018-07-01T05:11:47.333Z,29.60
2018-07-01T05:14:16.580Z,27.40
2018-07-01T05:16:45.385Z,25.30
2018-07-01T05:19:14.681Z,24.00
2018-07-01T05:21:43.504Z,23.10
2018-07-01T05:24:12.355Z,21.50
2018-07-01T05:26:41.317Z,20.00
2018-07-01T05:29:10.034Z,19.40
2018-07-01T05:31:39.135Z,19.00
2018-07-01T05:34:07.790Z,18.70
2018-07-01T05:36:36.651Z,18.80
2018-07-01T05:39:11.057Z,18.20
2018-07-01T05:41:39.711Z,17.50
2018-07-01T05:44:08.607Z,15.90
2018-07-01T05:46:37.482Z,15.10
2018-07-01T05:49:06.176Z,14.90
2018-07-01T05:51:35.340Z,14.10
2018-07-01T05:54:04.168Z,14.80
2018-07-01T05:56:32.770Z,13.10
2018-07-01T05:59:01.403Z,13.20
2018-07-01T06:01:30.021Z,14.00
2018-07-01T06:03:58.662Z,12.90
2018-07-01T06:06:27.400Z,10.40
2018-07-01T06:08:56.031Z,9.50
2018-07-01T06:11:24.781Z,8.70
2018-07-01T06:13:53.552Z,10.00
2018-07-01T06:16:22.260Z,8.10
2018-07-01T06:18:51.226Z,7.50
2018-07-01T06:21:19.864Z,8.00
2018-07-01T06:23:48.491Z,6.00
2018-07-01T06:26:17.117Z,7.00
2018-07-01T06:28:45.763Z,4.70
2018-07-01T06:31:14.334Z,4.70
2018-07-01T06:33:42.991Z,2.10
2018-07-01T06:36:12.327Z,1.60
2018-07-01T06:38:40.974Z,1.00
2018-07-01T06:41:09.632Z,1.60
2018-07-01T06:43:38.254Z,1.00
2018-07-01T06:46:07.073Z,1.00
2018-07-01T06:48:35.666Z,1.00
2018-07-01T06:51:04.300Z,1.00
2018-07-01T06:53:32.957Z,1.00
2018-07-01T06:56:01.614Z,1.00
2018-07-01T06:58:30.302Z,1.00
2018-07-01T07:00:58.991Z,1.00
2018-07-01T07:03:27.647Z,1.00
2018-07-01T07:05:56.314Z,1.00
2018-07-01T07:08:24.916Z,1.00
2018-07-01T07:10:53.523Z,1.00
2018-07-01T07:13:22.253Z,1.00
2018-07-01T07:15:50.926Z,1.00
2018-07-01T07:18:19.847Z,1.00
2018-07-01T07:20:48.467Z,1.00
2018-07-01T07:23:17.143Z,1.00
2018-07-01T07:25:45.788Z,1.00
2018-07-01T07:28:14.427Z,1.00
2018-07-01T07:30:43.083Z,1.00
2018-07-01T07:33:11.724Z,1.00
2018-07-01T07:35:40.358Z,1.00
2018-07-01T07:38:09.175Z,1.00
2018-07-01T07:40:37.791Z,1.00
2018-07-01T07:43:07.018Z,1.00
2018-07-01T07:45:35.813Z,1.00
2018-07-01T07:48:04.450Z,1.00
2018-07-01T07:50:33.046Z,1.00
2018-07-01T07:53:01.651Z,1.00
2018-07-01T07:55:30.245Z,1.00
2018-07-01T07:57:58.906Z,1.00
2018-07-01T08:00:27.581Z,1.00
2018-07-01T08:02:56.193Z,1.00
2018-07-01T08:05:24.835Z,1.00
2018-07-01T08:07:53.446Z,1.00
2018-07-01T08:10:22.070Z,1.00
2018-07-01T08:12:51.378Z,1.00
2018-07-01T08:15:21.523Z,1.00
2018-07-01T08:17:50.150Z,1.00
2018-07-01T08:20:18.875Z,1.00
2018-07-01T08:22:47.655Z,1.00
2018-07-01T08:25:16.266Z,1.00
2018-07-01T08:27:45.004Z,1.00
2018-07-01T08:30:13.747Z,1.00
2018-07-01T08:32:42.510Z,1.00
2018-07-01T08:35:11.195Z,1.00
2018-07-01T08:37:39.823Z,1.00
2018-07-01T08:40:08.556Z,1.00
2018-07-01T08:42:38.067Z,1.00
2018-07-01T08:45:08.180Z,1.00
2018-07-01T08:47:37.163Z,1.00
2018-07-01T08:50:06.841Z,1.00
2018-07-01T08:52:35.543Z,1.00
2018-07-01T08:55:04.294Z,1.00
2018-07-01T08:57:33.020Z,1.00
2018-07-01T09:00:01.736Z,1.00
2018-07-01T09:02:30.354Z,1.00
2018-07-01T09:04:59.483Z,1.00
2018-07-01T09:07:28.146Z,1.00
2018-07-01T09:09:56.787Z,1.00
2018-07-01T09:12:25.424Z,1.00
2018-07-01T09:14:54.043Z,1.00
2018-07-01T09:17:22.820Z,1.00
2018-07-01T09:19:51.447Z,1.00
2018-07-01T09:22:20.079Z,1.00
2018-07-01T09:24:48.686Z,1.00
2018-07-01T09:27:17.278Z,1.00
2018-07-01T09:29:51.343Z,1.00
2018-07-01T09:32:19.977Z,1.70
2018-07-01T09:34:48.616Z,2.10
2018-07-01T09:37:17.242Z,1.20
2018-07-01T09:39:45.860Z,1.00
2018-07-01T09:42:14.483Z,1.50
2018-07-01T09:44:43.075Z,1.70
2018-07-01T09:47:11.822Z,1.20
2018-07-01T09:49:47.737Z,1.00
2018-07-01T09:52:16.581Z,1.00
2018-07-01T09:54:45.320Z,1.00
2018-07-01T09:57:14.156Z,1.00
2018-07-01T09:59:42.845Z,1.00
2018-07-01T10:02:11.442Z,1.00
2018-07-01T10:04:40.124Z,1.00
2018-07-01T10:07:08.758Z,1.00
2018-07-01T10:09:37.391Z,1.00
2018-07-01T10:12:06.152Z,1.00
2018-07-01T10:14:34.677Z,1.00
2018-07-01T10:17:03.342Z,1.00
2018-07-01T10:19:31.951Z,1.00
2018-07-01T10:22:00.582Z,1.00
2018-07-01T10:24:29.195Z,1.00
2018-07-01T10:26:57.980Z,1.00
2018-07-01T10:29:26.682Z,1.00
2018-07-01T10:31:55.319Z,1.00
2018-07-01T10:34:23.940Z,1.00
2018-07-01T10:36:52.571Z,1.00
2018-07-01T10:39:22.115Z,1.00
2018-07-01T10:41:51.140Z,1.00
2018-07-01T10:44:19.793Z,1.00
2018-07-01T10:46:48.439Z,1.00
2018-07-01T10:49:17.204Z,1.00
2018-07-01T10:51:46.030Z,1.00
2018-07-01T10:54:14.684Z,1.00
2018-07-01T10:56:43.513Z,1.00
2018-07-01T10:59:12.477Z,1.00
2018-07-01T11:01:41.200Z,1.00
2018-07-01T11:04:10.020Z,1.00
2018-07-01T11:06:38.677Z,1.00
2018-07-01T11:09:09.651Z,1.00
2018-07-01T11:11:38.638Z,1.00
2018-07-01T11:14:07.326Z,1.00
2018-07-01T11:16:35.975Z,1.00
2018-07-01T11:19:05.660Z,1.00
2018-07-01T11:21:35.501Z,1.00
2018-07-01T11:24:04.155Z,1.00
2018-07-01T11:26:33.458Z,1.00
2018-07-01T11:29:02.047Z,1.00
2018-07-01T11:31:30.964Z,1.00
2018-07-01T11:33:59.600Z,1.00
2018-07-01T11:36:28.314Z,1.00
2018-07-01T11:38:57.378Z,1.00
2018-07-01T11:41:27.217Z,1.00
2018-07-01T11:43:56.005Z,1.00
2018-07-01T11:46:24.715Z,1.00
2018-07-01T11:48:53.391Z,1.00
2018-07-01T11:51:22.042Z,1.00
2018-07-01T11:53:50.755Z,1.00
2018-07-01T11:56:19.490Z,1.00
2018-07-01T11:58:48.101Z,1.00
2018-07-01T12:01:16.953Z,1.00
2018-07-01T12:03:45.590Z,1.00
2018-07-01T12:06:14.189Z,1.00
2018-07-01T12:08:42.859Z,1.00
2018-07-01T12:11:11.568Z,1.00
2018-07-01T12:13:41.272Z,1.00
2018-07-01T12:16:10.385Z,1.00
2018-07-01T12:18:39.033Z,1.00
2018-07-01T12:21:07.686Z,1.00
2018-07-01T12:23:36.325Z,1.00
2018-07-01T12:26:05.182Z,1.00
2018-07-01T12:28:33.975Z,1.00
2018-07-01T12:31:03.020Z,1.00
2018-07-01T12:33:31.799Z,1.00
2018-07-01T12:36:00.750Z,1.40
2018-07-01T12:38:29.480Z,1.20
2018-07-01T12:40:58.161Z,1.00
2018-07-01T12:43:26.873Z,1.00
2018-07-01T12:45:56.258Z,1.00
2018-07-01T12:48:24.883Z,1.00
2018-07-01T12:50:53.520Z,1.00
2018-07-01T12:53:22.265Z,1.00
2018-07-01T12:55:50.928Z,1.00
2018-07-01T12:58:19.603Z,1.00
2018-07-01T13:00:48.230Z,1.00
2018-07-01T13:03:16.939Z,1.00
2018-07-01T13:05:46.156Z,1.00
2018-07-01T13:08:14.808Z,1.00
2018-07-01T13:10:43.470Z,1.00
2018-07-01T13:13:12.086Z,1.00
2018-07-01T13:15:40.775Z,1.50
2018-07-01T13:18:09.446Z,1.00
2018-07-01T13:20:38.155Z,1.00
2018-07-01T13:23:06.887Z,1.00
2018-07-01T13:25:35.610Z,1.00
2018-07-01T13:28:04.291Z,1.00
2018-07-01T13:30:32.915Z,1.00
2018-07-01T13:33:01.614Z,1.00
2018-07-01T13:35:30.237Z,1.00
2018-07-01T13:37:58.897Z,1.00
2018-07-01T13:40:27.653Z,1.00
2018-07-01T13:42:56.348Z,1.00
2018-07-01T13:45:24.978Z,1.00
2018-07-01T13:47:53.606Z,1.00
2018-07-01T13:50:22.218Z,1.00
2018-07-01T13:52:51.008Z,1.00
2018-07-01T13:55:19.627Z,1.00
2018-07-01T13:57:48.440Z,1.00
2018-07-01T14:00:17.078Z,1.00
2018-07-01T14:02:45.797Z,1.00
2018-07-01T14:05:14.450Z,1.00
2018-07-01T14:07:43.058Z,1.00
2018-07-01T14:10:11.690Z,1.50
2018-07-01T14:12:40.339Z,1.30
2018-07-01T14:15:09.172Z,1.20
2018-07-01T14:17:37.859Z,1.00
2018-07-01T14:20:08.676Z,1.00
2018-07-01T14:22:37.551Z,1.00
2018-07-01T14:25:06.793Z,1.00
2018-07-01T14:27:35.418Z,1.00
2018-07-01T14:30:04.714Z,1.00
2018-07-01T14:32:33.325Z,1.00
2018-07-01T14:35:01.963Z,1.00
2018-07-01T14:37:30.563Z,1.00
2018-07-01T14:39:59.188Z,1.00
2018-07-01T14:42:27.823Z,1.00
2018-07-01T14:44:56.473Z,1.00
2018-07-01T14:47:25.110Z,1.00
2018-07-01T14:49:53.720Z,1.00
2018-07-01T14:52:22.446Z,1.00
2018-07-01T14:54:51.167Z,1.00
2018-07-01T14:57:19.839Z,1.00
2018-07-01T14:59:48.518Z,1.00
2018-07-01T15:02:17.225Z,1.00
2018-07-01T15:04:45.840Z,1.00
2018-07-01T15:07:15.022Z,1.00
2018-07-01T15:09:44.198Z,1.00
2018-07-01T15:12:13.298Z,1.00
2018-07-01T15:14:41.987Z,1.00
2018-07-01T15:17:11.733Z,1.00
2018-07-01T15:19:40.403Z,1.00
2018-07-01T15:22:09.027Z,1.00
2018-07-01T15:24:37.714Z,1.00
2018-07-01T15:27:07.008Z,1.00
2018-07-01T15:29:37.822Z,1.00
2018-07-01T15:32:06.835Z,1.00
2018-07-01T15:34:35.418Z,1.00
2018-07-01T15:37:04.075Z,1.00
2018-07-01T15:39:32.662Z,1.00
2018-07-01T15:42:01.301Z,1.00
2018-07-01T15:44:29.893Z,1.00
2018-07-01T15:46:58.552Z,1.00
2018-07-01T15:49:27.270Z,1.00
2018-07-01T15:51:55.915Z,1.00
2018-07-01T15:54:25.922Z,1.00
2018-07-01T15:56:54.585Z,1.00
2018-07-01T15:59:23.331Z,1.00
2018-07-01T16:01:51.968Z,1.00
2018-07-01T16:04:20.670Z,1.00
2018-07-01T16:06:49.443Z,1.00
2018-07-01T16:09:19.088Z,1.00
2018-07-01T16:11:47.733Z,1.00
2018-07-01T16:14:17.321Z,1.00
2018-07-01T16:16:46.151Z,1.00
2018-07-01T16:19:14.801Z,1.00
2018-07-01T16:21:44.010Z,1.00
2018-07-01T16:24:12.631Z,1.00
2018-07-01T16:26:46.728Z,1.00
2018-07-01T16:29:15.343Z,1.00
2018-07-01T16:31:45.526Z,1.00
2018-07-01T16:34:14.136Z,1.00
2018-07-01T16:36:42.798Z,1.00
2018-07-01T16:39:12.507Z,1.00
2018-07-01T16:41:41.082Z,1.00
2018-07-01T16:44:10.017Z,1.00
2018-07-01T16:46:38.688Z,1.00
2018-07-01T16:49:07.349Z,1.00
2018-07-01T16:51:35.950Z,1.00
2018-07-01T16:54:04.603Z,1.00
2018-07-01T16:56:33.266Z,1.00
2018-07-01T16:59:01.942Z,1.00
2018-07-01T17:01:32.283Z,1.00
2018-07-01T17:04:00.865Z,1.00
2018-07-01T17:06:29.528Z,1.00
2018-07-01T17:08:58.178Z,1.00
2018-07-01T17:11:26.795Z,1.00
2018-07-01T17:13:55.434Z,1.00
2018-07-01T17:16:24.021Z,1.00
2018-07-01T17:18:52.657Z,1.00
2018-07-01T17:21:21.314Z,1.00
2018-07-01T17:23:49.916Z,1.00
2018-07-01T17:26:18.817Z,1.00
2018-07-01T17:28:47.427Z,1.00
2018-07-01T17:31:21.343Z,1.00
2018-07-01T17:33:50.079Z,1.00
2018-07-01T17:36:18.684Z,1.00
2018-07-01T17:38:47.349Z,1.00
2018-07-01T17:41:15.979Z,1.00
2018-07-01T17:43:44.653Z,1.40
2018-07-01T17:46:13.345Z,2.10
2018-07-01T17:48:42.014Z,2.00
2018-07-01T17:51:10.746Z,1.60
2018-07-01T17:53:51.245Z,1.00
2018-07-01T17:56:20.395Z,1.00
2018-07-01T17:58:50.100Z,1.00
2018-07-01T18:01:19.336Z,1.00
2018-07-01T18:03:48.270Z,1.00
2018-07-01T18:06:17.036Z,1.00
2018-07-01T18:08:45.682Z,1.00
2018-07-01T18:11:14.323Z,1.00
2018-07-01T18:13:42.935Z,1.00
2018-07-01T18:16:11.637Z,1.00
2018-07-01T18:18:40.298Z,1.00
2018-07-01T18:21:08.934Z,1.00
2018-07-01T18:24:11.131Z,1.00
2018-07-01T18:26:06.519Z,1.00
2018-07-01T18:28:45.185Z,1.00
2018-07-01T18:31:04.116Z,1.00
2018-07-01T18:33:34.088Z,1.00
2018-07-01T18:36:03.049Z,1.00
2018-07-01T18:38:31.938Z,2.00
2018-07-01T18:41:00.927Z,1.70
2018-07-01T18:43:29.831Z,3.20
2018-07-01T18:45:58.753Z,2.90
2018-07-01T18:48:27.489Z,3.80
2018-07-01T18:50:56.396Z,4.20
2018-07-01T18:53:25.652Z,5.00
2018-07-01T18:55:54.783Z,5.30
2018-07-01T18:58:23.822Z,5.80
2018-07-01T19:00:53.243Z,5.50
2018-07-01T19:03:22.945Z,7.00
2018-07-01T19:05:52.031Z,7.40
2018-07-01T19:08:21.433Z,6.90
2018-07-01T19:10:50.426Z,6.70
2018-07-01T19:13:19.444Z,7.80
2018-07-01T19:15:48.488Z,7.90
2018-07-01T19:18:17.257Z,9.00
2018-07-01T19:20:46.547Z,9.00
2018-07-01T19:23:15.585Z,9.20
2018-07-01T19:25:44.562Z,9.40
2018-07-01T19:28:13.630Z,10.10
2018-07-01T19:30:42.544Z,10.20
2018-07-01T19:33:11.823Z,10.20
2018-07-01T19:35:40.797Z,11.10
2018-07-01T19:38:09.913Z,11.30
2018-07-01T19:40:39.038Z,10.20
2018-07-01T19:43:08.182Z,11.00
2018-07-01T19:45:37.000Z,11.40
2018-07-01T19:48:06.202Z,11.40
2018-07-01T19:50:35.184Z,11.80
2018-07-01T19:53:04.437Z,11.80
2018-07-01T19:58:01.801Z,12.70
2018-07-01T20:00:30.572Z,12.80
2018-07-01T20:02:59.935Z,13.30
2018-07-01T20:05:28.617Z,13.40
2018-07-01T20:07:57.681Z,13.40
2018-07-01T20:10:26.544Z,14.50
2018-07-01T20:12:55.462Z,14.60
2018-07-01T20:15:24.279Z,14.90
2018-07-01T20:17:52.948Z,15.00
2018-07-01T20:20:21.659Z,14.80
2018-07-01T20:22:50.350Z,15.10
2018-07-01T20:25:19.134Z,15.60
2018-07-01T20:27:47.945Z,15.40
2018-07-01T20:30:17.724Z,15.60
2018-07-01T20:32:46.426Z,16.30
2018-07-01T20:35:15.175Z,16.40
2018-07-01T20:37:43.818Z,16.40
2018-07-01T20:40:12.447Z,16.30
2018-07-01T20:42:41.425Z,16.60
2018-07-01T20:45:10.070Z,17.20
2018-07-01T20:47:38.737Z,17.20
2018-07-01T20:50:07.482Z,18.00
2018-07-01T20:52:36.082Z,18.00
2018-07-01T20:55:04.869Z,18.40
2018-07-01T20:57:33.780Z,18.60
2018-07-01T21:00:02.442Z,18.70
2018-07-01T21:02:31.238Z,18.70
2018-07-01T21:05:00.077Z,19.80
2018-07-01T21:07:28.722Z,19.20
2018-07-01T21:09:57.450Z,19.80
2018-07-01T21:12:26.107Z,20.10
2018-07-01T21:14:54.807Z,20.80
2018-07-01T21:17:23.489Z,20.80
2018-07-01T21:19:52.132Z,22.10
2018-07-01T21:22:20.793Z,21.90
2018-07-01T21:27:17.824Z,23.00
2018-07-01T21:29:46.540Z,23.10
2018-07-01T21:32:15.177Z,23.80
2018-07-01T21:34:43.850Z,24.30
2018-07-01T21:37:12.552Z,24.60
2018-07-01T21:39:41.398Z,24.70
2018-07-01T21:42:10.637Z,24.90
2018-07-01T21:44:39.497Z,25.10
2018-07-01T21:47:08.456Z,25.10
2018-07-01T21:49:37.112Z,25.60
2018-07-01T21:52:05.986Z,26.10
2018-07-01T21:54:35.901Z,26.20
2018-07-01T21:57:04.675Z,26.70
2018-07-01T21:59:33.378Z,26.90
2018-07-01T22:02:02.170Z,27.40
2018-07-01T22:04:30.914Z,27.70
2018-07-01T22:07:00.518Z,27.70
2018-07-01T22:09:30.191Z,28.30
2018-07-01T22:12:10.046Z,28.30
2018-07-01T22:15:47.569Z,28.10
2018-07-01T22:18:16.262Z,28.40
2018-07-01T22:20:44.939Z,28.60
2018-07-01T22:23:13.673Z,28.40
2018-07-01T22:25:42.327Z,28.30
2018-07-01T22:28:10.994Z,28.90
2018-07-01T22:30:39.649Z,29.30
2018-07-01T22:33:08.343Z,29.70
2018-07-01T22:35:36.986Z,30.00
2018-07-01T22:38:05.715Z,29.90
2018-07-01T22:40:34.363Z,30.80
2018-07-01T22:43:02.995Z,31.10
2018-07-01T22:45:31.703Z,31.40
2018-07-01T22:48:00.356Z,31.60
2018-07-01T22:50:28.970Z,31.90
2018-07-01T22:52:57.680Z,32.50
2018-07-01T22:55:26.306Z,33.40
2018-07-01T22:57:54.978Z,32.60
2018-07-01T23:00:23.607Z,33.00
2018-07-01T23:03:09.006Z,33.30
2018-07-01T23:05:37.655Z,33.00
2018-07-01T23:08:06.382Z,33.80
2018-07-01T23:10:35.094Z,34.60
2018-07-01T23:13:03.867Z,34.30
2018-07-01T23:15:32.642Z,34.20
2018-07-01T23:18:01.285Z,34.60
2018-07-01T23:20:29.967Z,35.10
2018-07-01T23:22:58.640Z,35.30
2018-07-01T23:25:27.279Z,35.20
2018-07-01T23:27:55.929Z,34.60
2018-07-01T23:30:24.581Z,34.70
2018-07-01T23:32:53.213Z,35.10
2018-07-01T23:35:21.869Z,34.80
2018-07-01T23:37:50.515Z,35.20
2018-07-01T23:40:19.231Z,35.80
2018-07-01T23:42:47.862Z,35.80
2018-07-01T23:45:16.866Z,35.20
2018-07-01T23:47:45.559Z,35.50
2018-07-01T23:50:14.214Z,35.30
2018-07-01T23:52:42.880Z,36.50
2018-07-01T23:55:11.570Z,36.10
2018-07-01T23:57:40.221Z,37.00
